Terminal Aerodrome Forecast
Issued by NWS

Current Version | Previous Version | Text Only | Print | Product List | Glossary On
Versions: 1 2 3 4 5 6 7 8 9 10 11 12 13 14 15 16 17 18 19 20 21 22 23 24 25 26 27 28 29 30 31 32 33
000
FTUS45 KBOU 080530
TAFAPA
TAF
KAPA 080530Z 0806/0906 15005KT P6SM FEW015
      TEMPO 0806/0808 BKN015
     FM081600 08007KT P6SM FEW050 SCT200
     FM090200 14007KT P6SM SCT120 BKN200=

USA.gov is the U.S. government's official web portal to all federal, state and local government web resources and services.